sensor_id;sensor_type;location;lat;lon;timestamp;P1;durP1;ratioP1;P2;durP2;ratioP2
10275;SDS011;5183;51.190;6.820;2022-12-05T05:48:01;43.77;;;28.13;;
10275;SDS011;5183;51.190;6.820;2022-12-05T05:50:28;39.50;;;27.10;;
10275;SDS011;5183;51.190;6.820;2022-12-05T05:52:55;41.87;;;27.23;;
10275;SDS011;5183;51.190;6.820;2022-12-05T05:55:21;39.60;;;26.93;;
10275;SDS011;5183;51.190;6.820;2022-12-05T05:57:48;43.13;;;28.27;;
10275;SDS011;5183;51.190;6.820;2022-12-05T06:00:15;42.23;;;27.57;;
10275;SDS011;5183;51.190;6.820;2022-12-05T06:02:42;40.60;;;27.37;;
10275;SDS011;5183;51.190;6.820;2022-12-05T06:05:11;41.60;;;26.70;;
10275;SDS011;5183;51.190;6.820;2022-12-05T06:07:37;44.83;;;28.53;;
10275;SDS011;5183;51.190;6.820;2022-12-05T06:10:05;45.03;;;28.57;;
10275;SDS011;5183;51.190;6.820;2022-12-05T06:12:32;41.50;;;27.37;;
10275;SDS011;5183;51.190;6.820;2022-12-05T06:14:59;41.73;;;27.80;;
10275;SDS011;5183;51.190;6.820;2022-12-05T06:17:26;43.50;;;28.23;;
10275;SDS011;5183;51.190;6.820;2022-12-05T06:19:53;45.40;;;29.33;;
10275;SDS011;5183;51.190;6.820;2022-12-05T06:22:21;42.10;;;28.60;;
10275;SDS011;5183;51.190;6.820;2022-12-05T06:24:48;43.47;;;28.07;;
10275;SDS011;5183;51.190;6.820;2022-12-05T06:27:15;41.30;;;27.23;;
10275;SDS011;5183;51.190;6.820;2022-12-05T06:29:42;42.00;;;27.53;;
10275;SDS011;5183;51.190;6.820;2022-12-05T06:32:08;44.60;;;28.43;;
10275;SDS011;5183;51.190;6.820;2022-12-05T06:34:35;41.97;;;27.63;;
10275;SDS011;5183;51.190;6.820;2022-12-05T06:37:02;45.00;;;28.10;;
10275;SDS011;5183;51.190;6.820;2022-12-05T06:39:30;42.43;;;27.70;;
10275;SDS011;5183;51.190;6.820;2022-12-05T06:41:57;43.33;;;27.60;;
10275;SDS011;5183;51.190;6.820;2022-12-05T06:44:24;40.03;;;26.57;;
10275;SDS011;5183;51.190;6.820;2022-12-05T06:46:52;43.80;;;27.47;;
10275;SDS011;5183;51.190;6.820;2022-12-05T06:49:19;38.80;;;27.00;;
10275;SDS011;5183;51.190;6.820;2022-12-05T06:51:46;41.40;;;27.47;;
10275;SDS011;5183;51.190;6.820;2022-12-05T06:54:13;42.57;;;27.67;;
10275;SDS011;5183;51.190;6.820;2022-12-05T06:56:41;40.67;;;27.83;;
10275;SDS011;5183;51.190;6.820;2022-12-05T06:59:08;41.83;;;26.53;;
10275;SDS011;5183;51.190;6.820;2022-12-05T07:01:35;38.67;;;25.87;;
10275;SDS011;5183;51.190;6.820;2022-12-05T07:04:06;41.57;;;26.57;;
10275;SDS011;5183;51.190;6.820;2022-12-05T07:06:35;36.83;;;24.33;;
10275;SDS011;5183;51.190;6.820;2022-12-05T07:09:03;39.47;;;27.77;;
10275;SDS011;5183;51.190;6.820;2022-12-05T07:11:30;44.42;;;31.80;;
10275;SDS011;5183;51.190;6.820;2022-12-05T07:13:59;40.40;;;27.97;;
10275;SDS011;5183;51.190;6.820;2022-12-05T07:16:26;37.67;;;25.87;;
10275;SDS011;5183;51.190;6.820;2022-12-05T07:18:53;39.40;;;25.90;;
10275;SDS011;5183;51.190;6.820;2022-12-05T07:21:20;34.10;;;24.30;;
10275;SDS011;5183;51.190;6.820;2022-12-05T07:23:47;36.47;;;24.87;;
10275;SDS011;5183;51.190;6.820;2022-12-05T07:26:16;37.83;;;25.87;;
10275;SDS011;5183;51.190;6.820;2022-12-05T07:28:44;36.20;;;25.07;;
10275;SDS011;5183;51.190;6.820;2022-12-05T07:31:14;39.33;;;25.97;;
10275;SDS011;5183;51.190;6.820;2022-12-05T07:33:42;42.83;;;26.87;;
10275;SDS011;5183;51.190;6.820;2022-12-05T07:36:10;36.13;;;25.73;;
10275;SDS011;5183;51.190;6.820;2022-12-05T07:38:38;41.60;;;27.57;;
10275;SDS011;5183;51.190;6.820;2022-12-05T07:41:06;40.53;;;27.87;;
10275;SDS011;5183;51.190;6.820;2022-12-05T07:43:34;41.40;;;27.63;;
10275;SDS011;5183;51.190;6.820;2022-12-05T07:46:01;42.17;;;29.03;;
10275;SDS011;5183;51.190;6.820;2022-12-05T07:48:30;47.67;;;28.33;;
10275;SDS011;5183;51.190;6.820;2022-12-05T07:50:58;44.47;;;29.40;;
10275;SDS011;5183;51.190;6.820;2022-12-05T07:53:26;42.87;;;28.00;;
10275;SDS011;5183;51.190;6.820;2022-12-05T07:55:53;44.23;;;28.13;;
10275;SDS011;5183;51.190;6.820;2022-12-05T07:58:20;43.47;;;27.67;;
10275;SDS011;5183;51.190;6.820;2022-12-05T08:00:47;40.70;;;27.23;;
10275;SDS011;5183;51.190;6.820;2022-12-05T08:03:14;42.10;;;27.73;;
10275;SDS011;5183;51.190;6.820;2022-12-05T08:05:42;43.53;;;26.53;;
10275;SDS011;5183;51.190;6.820;2022-12-05T08:08:09;39.23;;;24.83;;
10275;SDS011;5183;51.190;6.820;2022-12-05T08:10:36;43.17;;;26.87;;
10275;SDS011;5183;51.190;6.820;2022-12-05T08:13:02;36.37;;;25.63;;
10275;SDS011;5183;51.190;6.820;2022-12-05T08:15:32;40.17;;;26.27;;
10275;SDS011;5183;51.190;6.820;2022-12-05T08:17:59;41.03;;;29.10;;
10275;SDS011;5183;51.190;6.820;2022-12-05T08:20:26;39.80;;;26.00;;
10275;SDS011;5183;51.190;6.820;2022-12-05T08:22:55;39.30;;;26.57;;
10275;SDS011;5183;51.190;6.820;2022-12-05T08:25:22;39.80;;;26.13;;
10275;SDS011;5183;51.190;6.820;2022-12-05T08:27:49;39.57;;;26.23;;
10275;SDS011;5183;51.190;6.820;2022-12-05T08:30:16;36.90;;;25.10;;
10275;SDS011;5183;51.190;6.820;2022-12-05T08:32:43;40.53;;;26.20;;
10275;SDS011;5183;51.190;6.820;2022-12-05T08:35:10;40.25;;;27.55;;
10275;SDS011;5183;51.190;6.820;2022-12-05T08:37:37;39.07;;;26.67;;
10275;SDS011;5183;51.190;6.820;2022-12-05T08:40:06;38.70;;;25.43;;
10275;SDS011;5183;51.190;6.820;2022-12-05T08:42:33;36.93;;;26.03;;
10275;SDS011;5183;51.190;6.820;2022-12-05T08:45:00;36.43;;;25.30;;
10275;SDS011;5183;51.190;6.820;2022-12-05T08:47:27;35.70;;;24.90;;
10275;SDS011;5183;51.190;6.820;2022-12-05T08:49:54;35.47;;;26.00;;
10275;SDS011;5183;51.190;6.820;2022-12-05T08:52:21;34.47;;;24.77;;
10275;SDS011;5183;51.190;6.820;2022-12-05T08:54:48;33.20;;;23.27;;
10275;SDS011;5183;51.190;6.820;2022-12-05T08:57:16;32.90;;;24.03;;
10275;SDS011;5183;51.190;6.820;2022-12-05T08:59:43;34.73;;;23.53;;
10275;SDS011;5183;51.190;6.820;2022-12-05T09:02:10;34.30;;;23.63;;
10275;SDS011;5183;51.190;6.820;2022-12-05T09:04:37;32.30;;;23.03;;
10275;SDS011;5183;51.190;6.820;2022-12-05T09:07:04;31.67;;;23.60;;
10275;SDS011;5183;51.190;6.820;2022-12-05T09:09:32;33.83;;;23.43;;
10275;SDS011;5183;51.190;6.820;2022-12-05T09:11:59;33.90;;;25.20;;
10275;SDS011;5183;51.190;6.820;2022-12-05T09:14:27;32.30;;;24.60;;
10275;SDS011;5183;51.190;6.820;2022-12-05T09:16:57;31.27;;;23.10;;
10275;SDS011;5183;51.190;6.820;2022-12-05T09:19:25;31.30;;;22.40;;
10275;SDS011;5183;51.190;6.820;2022-12-05T09:21:52;31.70;;;22.93;;
10275;SDS011;5183;51.190;6.820;2022-12-05T09:24:19;31.13;;;22.53;;
10275;SDS011;5183;51.190;6.820;2022-12-05T09:26:46;29.57;;;22.17;;
10275;SDS011;5183;51.190;6.820;2022-12-05T09:29:13;33.77;;;23.47;;
10275;SDS011;5183;51.190;6.820;2022-12-05T09:31:41;33.42;;;27.48;;
10275;SDS011;5183;51.190;6.820;2022-12-05T09:34:08;31.40;;;23.70;;
10275;SDS011;5183;51.190;6.820;2022-12-05T09:36:37;29.57;;;23.13;;
10275;SDS011;5183;51.190;6.820;2022-12-05T09:39:04;30.80;;;23.70;;
10275;SDS011;5183;51.190;6.820;2022-12-05T09:41:43;32.53;;;24.50;;
10275;SDS011;5183;51.190;6.820;2022-12-05T09:44:43;30.47;;;22.93;;
10275;SDS011;5183;51.190;6.820;2022-12-05T09:47:22;30.00;;;23.57;;
10275;SDS011;5183;51.190;6.820;2022-12-05T09:49:57;31.97;;;23.00;;
10275;SDS011;5183;51.190;6.820;2022-12-05T09:52:30;34.63;;;23.70;;
10275;SDS011;5183;51.190;6.820;2022-12-05T09:55:01;32.07;;;24.27;;
10275;SDS011;5183;51.190;6.820;2022-12-05T09:57:33;33.60;;;24.67;;
10275;SDS011;5183;51.190;6.820;2022-12-05T10:00:04;31.63;;;23.80;;
10275;SDS011;5183;51.190;6.820;2022-12-05T10:02:38;32.33;;;24.10;;
10275;SDS011;5183;51.190;6.820;2022-12-05T10:05:13;34.03;;;23.93;;
10275;SDS011;5183;51.190;6.820;2022-12-05T10:07:46;30.43;;;23.57;;
10275;SDS011;5183;51.190;6.820;2022-12-05T10:10:27;27.43;;;22.23;;
10275;SDS011;5183;51.190;6.820;2022-12-05T10:13:12;25.50;;;21.57;;
10275;SDS011;5183;51.190;6.820;2022-12-05T10:15:45;26.10;;;21.30;;
10275;SDS011;5183;51.190;6.820;2022-12-05T10:18:18;27.47;;;20.90;;
10275;SDS011;5183;51.190;6.820;2022-12-05T10:20:55;31.63;;;23.07;;
10275;SDS011;5183;51.190;6.820;2022-12-05T10:23:24;28.20;;;22.03;;
10275;SDS011;5183;51.190;6.820;2022-12-05T10:25:55;27.87;;;23.00;;
10275;SDS011;5183;51.190;6.820;2022-12-05T10:28:26;26.67;;;21.33;;
10275;SDS011;5183;51.190;6.820;2022-12-05T10:30:57;24.50;;;20.53;;
10275;SDS011;5183;51.190;6.820;2022-12-05T10:33:32;24.17;;;19.13;;
10275;SDS011;5183;51.190;6.820;2022-12-05T10:36:08;25.67;;;20.43;;
10275;SDS011;5183;51.190;6.820;2022-12-05T10:38:36;25.10;;;20.55;;
10275;SDS011;5183;51.190;6.820;2022-12-05T10:41:04;22.13;;;19.07;;
10275;SDS011;5183;51.190;6.820;2022-12-05T10:43:33;24.00;;;19.63;;
10275;SDS011;5183;51.190;6.820;2022-12-05T10:46:02;21.43;;;17.67;;
10275;SDS011;5183;51.190;6.820;2022-12-05T10:48:32;21.93;;;18.63;;
10275;SDS011;5183;51.190;6.820;2022-12-05T10:51:01;21.67;;;17.77;;
10275;SDS011;5183;51.190;6.820;2022-12-05T10:53:30;22.33;;;18.67;;
10275;SDS011;5183;51.190;6.820;2022-12-05T10:56:03;19.80;;;17.63;;
10275;SDS011;5183;51.190;6.820;2022-12-05T10:59:00;20.17;;;17.93;;
10275;SDS011;5183;51.190;6.820;2022-12-05T11:01:28;22.57;;;18.30;;
10275;SDS011;5183;51.190;6.820;2022-12-05T11:03:57;20.00;;;17.33;;
10275;SDS011;5183;51.190;6.820;2022-12-05T11:06:26;23.47;;;18.77;;
10275;SDS011;5183;51.190;6.820;2022-12-05T11:08:55;22.00;;;19.60;;
10275;SDS011;5183;51.190;6.820;2022-12-05T11:11:24;23.60;;;19.57;;
10275;SDS011;5183;51.190;6.820;2022-12-05T11:13:53;22.60;;;18.87;;
10275;SDS011;5183;51.190;6.820;2022-12-05T11:16:22;24.03;;;18.63;;
10275;SDS011;5183;51.190;6.820;2022-12-05T11:18:50;21.83;;;18.00;;
10275;SDS011;5183;51.190;6.820;2022-12-05T11:21:18;21.47;;;18.90;;
10275;SDS011;5183;51.190;6.820;2022-12-05T11:23:45;22.03;;;17.93;;
10275;SDS011;5183;51.190;6.820;2022-12-05T11:26:15;21.43;;;18.40;;
10275;SDS011;5183;51.190;6.820;2022-12-05T11:28:45;21.50;;;18.27;;
10275;SDS011;5183;51.190;6.820;2022-12-05T11:31:24;24.67;;;19.17;;
10275;SDS011;5183;51.190;6.820;2022-12-05T11:33:59;20.87;;;17.90;;
10275;SDS011;5183;51.190;6.820;2022-12-05T11:36:31;20.40;;;18.27;;
10275;SDS011;5183;51.190;6.820;2022-12-05T11:39:03;20.77;;;16.83;;
10275;SDS011;5183;51.190;6.820;2022-12-05T11:41:37;21.27;;;18.03;;
10275;SDS011;5183;51.190;6.820;2022-12-05T11:44:20;18.53;;;16.53;;
10275;SDS011;5183;51.190;6.820;2022-12-05T11:47:09;20.63;;;17.67;;
10275;SDS011;5183;51.190;6.820;2022-12-05T11:49:51;20.43;;;17.67;;
10275;SDS011;5183;51.190;6.820;2022-12-05T11:52:36;18.53;;;16.33;;
10275;SDS011;5183;51.190;6.820;2022-12-05T11:55:18;19.07;;;17.07;;
10275;SDS011;5183;51.190;6.820;2022-12-05T11:57:56;19.90;;;17.80;;
10275;SDS011;5183;51.190;6.820;2022-12-05T12:00:43;20.13;;;17.60;;
10275;SDS011;5183;51.190;6.820;2022-12-05T12:03:19;19.73;;;16.97;;
10275;SDS011;5183;51.190;6.820;2022-12-05T12:06:08;19.70;;;16.67;;
10275;SDS011;5183;51.190;6.820;2022-12-05T12:08:50;21.27;;;18.33;;
10275;SDS011;5183;51.190;6.820;2022-12-05T12:11:26;19.13;;;17.03;;
10275;SDS011;5183;51.190;6.820;2022-12-05T12:14:00;19.77;;;17.60;;
10275;SDS011;5183;51.190;6.820;2022-12-05T12:16:35;22.67;;;20.20;;
10275;SDS011;5183;51.190;6.820;2022-12-05T12:19:16;19.90;;;17.67;;
10275;SDS011;5183;51.190;6.820;2022-12-05T12:22:04;20.60;;;17.77;;
10275;SDS011;5183;51.190;6.820;2022-12-05T12:24:51;19.57;;;17.07;;
10275;SDS011;5183;51.190;6.820;2022-12-05T12:27:34;19.70;;;17.40;;
10275;SDS011;5183;51.190;6.820;2022-12-05T12:30:13;18.87;;;16.87;;
10275;SDS011;5183;51.190;6.820;2022-12-05T12:32:46;18.53;;;16.53;;
10275;SDS011;5183;51.190;6.820;2022-12-05T12:35:28;20.17;;;17.53;;
10275;SDS011;5183;51.190;6.820;2022-12-05T12:38:07;20.67;;;18.23;;
10275;SDS011;5183;51.190;6.820;2022-12-05T12:40:49;21.30;;;19.00;;
10275;SDS011;5183;51.190;6.820;2022-12-05T12:43:30;23.13;;;19.10;;
10275;SDS011;5183;51.190;6.820;2022-12-05T12:46:07;22.17;;;19.13;;
10275;SDS011;5183;51.190;6.820;2022-12-05T12:48:45;24.27;;;20.30;;
10275;SDS011;5183;51.190;6.820;2022-12-05T12:51:23;22.93;;;19.77;;
10275;SDS011;5183;51.190;6.820;2022-12-05T12:53:59;26.50;;;21.73;;
10275;SDS011;5183;51.190;6.820;2022-12-05T12:56:38;23.73;;;20.53;;
10275;SDS011;5183;51.190;6.820;2022-12-05T12:59:24;24.63;;;20.73;;
10275;SDS011;5183;51.190;6.820;2022-12-05T13:02:08;21.57;;;19.00;;
10275;SDS011;5183;51.190;6.820;2022-12-05T13:04:41;22.53;;;18.30;;
10275;SDS011;5183;51.190;6.820;2022-12-05T13:07:13;20.90;;;18.43;;
10275;SDS011;5183;51.190;6.820;2022-12-05T13:09:45;19.70;;;17.53;;
10275;SDS011;5183;51.190;6.820;2022-12-05T13:12:20;22.67;;;18.10;;
10275;SDS011;5183;51.190;6.820;2022-12-05T13:14:51;21.73;;;17.83;;
10275;SDS011;5183;51.190;6.820;2022-12-05T13:17:21;18.53;;;16.13;;
10275;SDS011;5183;51.190;6.820;2022-12-05T13:19:49;18.27;;;16.37;;
10275;SDS011;5183;51.190;6.820;2022-12-05T13:22:18;21.00;;;16.97;;
10275;SDS011;5183;51.190;6.820;2022-12-05T13:24:48;19.93;;;16.43;;
10275;SDS011;5183;51.190;6.820;2022-12-05T13:27:16;17.60;;;15.33;;
10275;SDS011;5183;51.190;6.820;2022-12-05T13:29:47;19.20;;;16.43;;
10275;SDS011;5183;51.190;6.820;2022-12-05T13:32:24;17.43;;;15.50;;
10275;SDS011;5183;51.190;6.820;2022-12-05T13:34:54;19.67;;;16.53;;
10275;SDS011;5183;51.190;6.820;2022-12-05T13:37:23;20.67;;;16.23;;
10275;SDS011;5183;51.190;6.820;2022-12-05T13:40:26;17.20;;;14.70;;
10275;SDS011;5183;51.190;6.820;2022-12-05T13:43:16;17.33;;;15.13;;
10275;SDS011;5183;51.190;6.820;2022-12-05T13:45:53;19.43;;;15.60;;
10275;SDS011;5183;51.190;6.820;2022-12-05T13:48:27;17.47;;;15.67;;
10275;SDS011;5183;51.190;6.820;2022-12-05T13:50:58;19.20;;;16.37;;
10275;SDS011;5183;51.190;6.820;2022-12-05T13:53:31;19.70;;;17.27;;
10275;SDS011;5183;51.190;6.820;2022-12-05T13:56:03;20.53;;;17.63;;
10275;SDS011;5183;51.190;6.820;2022-12-05T13:58:48;18.03;;;16.13;;
10275;SDS011;5183;51.190;6.820;2022-12-05T14:04:23;21.67;;;17.43;;
10275;SDS011;5183;51.190;6.820;2022-12-05T14:07:09;19.63;;;17.50;;
10275;SDS011;5183;51.190;6.820;2022-12-05T14:09:49;20.13;;;17.77;;
10275;SDS011;5183;51.190;6.820;2022-12-05T14:15:24;21.93;;;18.50;;
10275;SDS011;5183;51.190;6.820;2022-12-05T14:17:59;25.70;;;19.77;;
10275;SDS011;5183;51.190;6.820;2022-12-05T14:20:47;22.20;;;19.40;;
10275;SDS011;5183;51.190;6.820;2022-12-05T14:23:30;21.87;;;18.73;;
10275;SDS011;5183;51.190;6.820;2022-12-05T14:26:14;21.77;;;19.17;;
10275;SDS011;5183;51.190;6.820;2022-12-05T14:32:02;21.87;;;18.33;;
10275;SDS011;5183;51.190;6.820;2022-12-05T14:34:35;21.83;;;19.37;;
10275;SDS011;5183;51.190;6.820;2022-12-05T14:37:19;24.20;;;20.47;;
10275;SDS011;5183;51.190;6.820;2022-12-05T14:39:51;21.70;;;19.13;;
10275;SDS011;5183;51.190;6.820;2022-12-05T14:42:22;25.37;;;19.67;;
10275;SDS011;5183;51.190;6.820;2022-12-05T14:44:58;23.77;;;19.47;;
10275;SDS011;5183;51.190;6.820;2022-12-05T14:47:30;25.03;;;20.70;;
10275;SDS011;5183;51.190;6.820;2022-12-05T14:50:00;23.77;;;20.57;;
10275;SDS011;5183;51.190;6.820;2022-12-05T14:55:48;25.80;;;21.37;;
10275;SDS011;5183;51.190;6.820;2022-12-05T14:58:19;25.03;;;20.93;;
10275;SDS011;5183;51.190;6.820;2022-12-05T15:00:53;25.73;;;21.73;;
10275;SDS011;5183;51.190;6.820;2022-12-05T15:03:23;26.00;;;22.73;;
10275;SDS011;5183;51.190;6.820;2022-12-05T15:05:55;27.53;;;23.43;;
10275;SDS011;5183;51.190;6.820;2022-12-05T15:08:22;28.87;;;23.40;;
10275;SDS011;5183;51.190;6.820;2022-12-05T15:10:50;30.83;;;24.27;;
10275;SDS011;5183;51.190;6.820;2022-12-05T15:13:18;27.00;;;22.37;;
10275;SDS011;5183;51.190;6.820;2022-12-05T15:15:51;30.97;;;23.67;;
10275;SDS011;5183;51.190;6.820;2022-12-05T15:18:26;28.57;;;23.47;;
10275;SDS011;5183;51.190;6.820;2022-12-05T15:20:57;28.80;;;22.90;;
10275;SDS011;5183;51.190;6.820;2022-12-05T15:23:36;28.07;;;23.37;;
10275;SDS011;5183;51.190;6.820;2022-12-05T15:26:17;31.27;;;24.30;;
10275;SDS011;5183;51.190;6.820;2022-12-05T15:28:57;31.70;;;24.07;;
10275;SDS011;5183;51.190;6.820;2022-12-05T15:31:26;32.70;;;25.50;;
10275;SDS011;5183;51.190;6.820;2022-12-05T15:33:57;30.60;;;24.97;;
10275;SDS011;5183;51.190;6.820;2022-12-05T15:36:31;29.17;;;24.20;;
10275;SDS011;5183;51.190;6.820;2022-12-05T15:39:02;31.83;;;26.50;;
10275;SDS011;5183;51.190;6.820;2022-12-05T15:41:30;32.83;;;25.97;;
10275;SDS011;5183;51.190;6.820;2022-12-05T15:43:57;32.53;;;26.03;;
10275;SDS011;5183;51.190;6.820;2022-12-05T15:46:24;30.57;;;25.37;;
10275;SDS011;5183;51.190;6.820;2022-12-05T15:48:52;31.53;;;26.03;;
10275;SDS011;5183;51.190;6.820;2022-12-05T15:51:22;29.63;;;24.20;;
10275;SDS011;5183;51.190;6.820;2022-12-05T15:53:56;29.63;;;24.40;;
10275;SDS011;5183;51.190;6.820;2022-12-05T15:56:31;28.27;;;23.13;;
10275;SDS011;5183;51.190;6.820;2022-12-05T15:59:02;30.15;;;26.85;;
10275;SDS011;5183;51.190;6.820;2022-12-05T16:01:38;31.97;;;25.73;;
10275;SDS011;5183;51.190;6.820;2022-12-05T16:04:11;28.67;;;23.27;;
10275;SDS011;5183;51.190;6.820;2022-12-05T16:06:44;29.27;;;23.53;;
10275;SDS011;5183;51.190;6.820;2022-12-05T16:09:15;28.88;;;24.33;;
10275;SDS011;5183;51.190;6.820;2022-12-05T16:11:53;30.27;;;24.13;;
10275;SDS011;5183;51.190;6.820;2022-12-05T16:14:22;29.50;;;24.03;;
10275;SDS011;5183;51.190;6.820;2022-12-05T16:16:55;31.63;;;26.00;;
10275;SDS011;5183;51.190;6.820;2022-12-05T16:19:26;29.70;;;24.43;;
10275;SDS011;5183;51.190;6.820;2022-12-05T16:22:00;32.03;;;24.77;;
10275;SDS011;5183;51.190;6.820;2022-12-05T16:24:31;28.37;;;23.53;;
10275;SDS011;5183;51.190;6.820;2022-12-05T16:27:12;29.30;;;23.40;;
10275;SDS011;5183;51.190;6.820;2022-12-05T16:29:39;29.03;;;23.70;;
10275;SDS011;5183;51.190;6.820;2022-12-05T16:32:13;30.63;;;24.93;;
10275;SDS011;5183;51.190;6.820;2022-12-05T16:34:44;29.57;;;23.60;;
10275;SDS011;5183;51.190;6.820;2022-12-05T16:37:17;29.43;;;24.43;;
10275;SDS011;5183;51.190;6.820;2022-12-05T16:39:49;30.00;;;23.80;;
10275;SDS011;5183;51.190;6.820;2022-12-05T16:42:21;32.47;;;23.97;;
10275;SDS011;5183;51.190;6.820;2022-12-05T16:44:53;30.40;;;24.50;;
10275;SDS011;5183;51.190;6.820;2022-12-05T16:47:38;32.20;;;26.07;;
10275;SDS011;5183;51.190;6.820;2022-12-05T16:50:22;32.33;;;25.80;;
10275;SDS011;5183;51.190;6.820;2022-12-05T16:53:03;39.70;;;29.40;;
10275;SDS011;5183;51.190;6.820;2022-12-05T16:55:41;40.20;;;29.80;;
10275;SDS011;5183;51.190;6.820;2022-12-05T16:58:10;44.07;;;31.00;;
10275;SDS011;5183;51.190;6.820;2022-12-05T17:00:42;38.13;;;29.83;;
10275;SDS011;5183;51.190;6.820;2022-12-05T17:03:11;31.87;;;25.93;;
10275;SDS011;5183;51.190;6.820;2022-12-05T17:05:39;36.03;;;29.57;;
10275;SDS011;5183;51.190;6.820;2022-12-05T17:08:06;36.87;;;30.37;;
10275;SDS011;5183;51.190;6.820;2022-12-05T17:10:33;37.43;;;30.20;;
10275;SDS011;5183;51.190;6.820;2022-12-05T17:13:00;36.60;;;29.63;;
10275;SDS011;5183;51.190;6.820;2022-12-05T17:15:27;43.70;;;35.67;;
10275;SDS011;5183;51.190;6.820;2022-12-05T17:17:56;41.83;;;32.80;;
10275;SDS011;5183;51.190;6.820;2022-12-05T17:20:25;36.10;;;29.77;;
10275;SDS011;5183;51.190;6.820;2022-12-05T17:22:52;34.43;;;26.97;;
10275;SDS011;5183;51.190;6.820;2022-12-05T17:25:25;30.70;;;25.27;;
10275;SDS011;5183;51.190;6.820;2022-12-05T17:27:56;38.10;;;31.37;;
10275;SDS011;5183;51.190;6.820;2022-12-05T17:30:23;35.87;;;29.10;;
10275;SDS011;5183;51.190;6.820;2022-12-05T17:32:53;31.80;;;25.97;;
10275;SDS011;5183;51.190;6.820;2022-12-05T17:35:22;36.23;;;29.20;;
10275;SDS011;5183;51.190;6.820;2022-12-05T17:38:05;41.47;;;31.90;;
10275;SDS011;5183;51.190;6.820;2022-12-05T17:40:32;40.20;;;31.77;;
10275;SDS011;5183;51.190;6.820;2022-12-05T17:43:00;42.63;;;32.37;;
10275;SDS011;5183;51.190;6.820;2022-12-05T17:45:28;41.87;;;32.37;;
10275;SDS011;5183;51.190;6.820;2022-12-05T17:47:55;42.03;;;32.17;;
10275;SDS011;5183;51.190;6.820;2022-12-05T17:50:23;43.03;;;31.60;;
10275;SDS011;5183;51.190;6.820;2022-12-05T17:52:52;39.30;;;30.53;;
10275;SDS011;5183;51.190;6.820;2022-12-05T17:55:23;40.80;;;31.60;;
10275;SDS011;5183;51.190;6.820;2022-12-05T17:57:54;48.87;;;34.53;;
10275;SDS011;5183;51.190;6.820;2022-12-05T18:00:22;44.07;;;32.77;;
10275;SDS011;5183;51.190;6.820;2022-12-05T18:02:50;46.03;;;34.77;;
10275;SDS011;5183;51.190;6.820;2022-12-05T18:05:17;39.67;;;31.23;;
10275;SDS011;5183;51.190;6.820;2022-12-05T18:07:44;42.03;;;32.13;;
10275;SDS011;5183;51.190;6.820;2022-12-05T18:10:13;43.63;;;32.70;;
10275;SDS011;5183;51.190;6.820;2022-12-05T18:12:42;44.97;;;33.80;;
10275;SDS011;5183;51.190;6.820;2022-12-05T18:15:10;41.33;;;32.23;;
10275;SDS011;5183;51.190;6.820;2022-12-05T18:17:37;42.97;;;33.20;;
10275;SDS011;5183;51.190;6.820;2022-12-05T18:20:05;41.90;;;33.10;;
10275;SDS011;5183;51.190;6.820;2022-12-05T18:22:33;42.10;;;32.03;;
10275;SDS011;5183;51.190;6.820;2022-12-05T18:25:00;42.73;;;33.90;;
10275;SDS011;5183;51.190;6.820;2022-12-05T18:27:28;41.90;;;31.60;;
10275;SDS011;5183;51.190;6.820;2022-12-05T18:29:57;39.77;;;31.17;;
10275;SDS011;5183;51.190;6.820;2022-12-05T18:32:24;41.90;;;32.63;;
10275;SDS011;5183;51.190;6.820;2022-12-05T18:34:51;42.23;;;32.30;;
10275;SDS011;5183;51.190;6.820;2022-12-05T18:37:18;40.23;;;31.57;;
10275;SDS011;5183;51.190;6.820;2022-12-05T18:39:46;36.70;;;29.73;;
10275;SDS011;5183;51.190;6.820;2022-12-05T18:42:13;42.00;;;35.67;;
10275;SDS011;5183;51.190;6.820;2022-12-05T18:44:40;39.60;;;31.93;;
10275;SDS011;5183;51.190;6.820;2022-12-05T18:47:08;40.10;;;31.67;;
10275;SDS011;5183;51.190;6.820;2022-12-05T18:49:35;35.70;;;28.87;;
10275;SDS011;5183;51.190;6.820;2022-12-05T18:52:02;36.80;;;32.30;;
10275;SDS011;5183;51.190;6.820;2022-12-05T18:54:29;38.57;;;30.07;;
10275;SDS011;5183;51.190;6.820;2022-12-05T18:56:56;37.17;;;29.90;;
10275;SDS011;5183;51.190;6.820;2022-12-05T18:59:23;34.67;;;29.65;;
10275;SDS011;5183;51.190;6.820;2022-12-05T19:01:50;38.50;;;29.17;;
10275;SDS011;5183;51.190;6.820;2022-12-05T19:04:19;34.63;;;27.47;;
10275;SDS011;5183;51.190;6.820;2022-12-05T19:06:47;38.10;;;29.60;;
10275;SDS011;5183;51.190;6.820;2022-12-05T19:09:16;37.17;;;28.90;;
10275;SDS011;5183;51.190;6.820;2022-12-05T19:11:45;35.43;;;28.77;;
10275;SDS011;5183;51.190;6.820;2022-12-05T19:14:13;36.60;;;29.70;;
10275;SDS011;5183;51.190;6.820;2022-12-05T19:16:41;36.97;;;29.70;;
10275;SDS011;5183;51.190;6.820;2022-12-05T19:19:09;38.43;;;29.23;;
10275;SDS011;5183;51.190;6.820;2022-12-05T19:21:40;34.23;;;27.73;;
10275;SDS011;5183;51.190;6.820;2022-12-05T19:24:07;34.87;;;27.53;;
10275;SDS011;5183;51.190;6.820;2022-12-05T19:26:36;39.73;;;31.40;;
10275;SDS011;5183;51.190;6.820;2022-12-05T19:29:03;42.33;;;32.87;;
10275;SDS011;5183;51.190;6.820;2022-12-05T19:31:31;43.10;;;34.23;;
10275;SDS011;5183;51.190;6.820;2022-12-05T19:34:00;40.73;;;31.60;;
10275;SDS011;5183;51.190;6.820;2022-12-05T19:36:28;37.57;;;30.57;;
10275;SDS011;5183;51.190;6.820;2022-12-05T19:38:58;37.33;;;29.83;;
10275;SDS011;5183;51.190;6.820;2022-12-05T19:41:25;34.53;;;28.00;;
10275;SDS011;5183;51.190;6.820;2022-12-05T19:43:53;38.27;;;30.27;;
10275;SDS011;5183;51.190;6.820;2022-12-05T19:46:21;35.70;;;29.03;;
10275;SDS011;5183;51.190;6.820;2022-12-05T19:48:50;35.30;;;28.63;;
10275;SDS011;5183;51.190;6.820;2022-12-05T19:51:18;37.17;;;29.73;;
10275;SDS011;5183;51.190;6.820;2022-12-05T19:53:45;37.57;;;29.47;;
10275;SDS011;5183;51.190;6.820;2022-12-05T19:56:14;39.60;;;28.57;;
10275;SDS011;5183;51.190;6.820;2022-12-05T19:58:43;35.63;;;27.40;;
10275;SDS011;5183;51.190;6.820;2022-12-05T20:01:10;37.73;;;28.97;;
10275;SDS011;5183;51.190;6.820;2022-12-05T20:03:38;37.70;;;29.17;;
10275;SDS011;5183;51.190;6.820;2022-12-05T20:06:06;49.23;;;36.10;;
10275;SDS011;5183;51.190;6.820;2022-12-05T20:08:35;45.07;;;34.67;;
10275;SDS011;5183;51.190;6.820;2022-12-05T20:11:03;45.53;;;33.73;;
10275;SDS011;5183;51.190;6.820;2022-12-05T20:13:32;37.43;;;28.43;;
10275;SDS011;5183;51.190;6.820;2022-12-05T20:16:00;44.33;;;32.40;;
10275;SDS011;5183;51.190;6.820;2022-12-05T20:18:28;42.30;;;31.57;;
10275;SDS011;5183;51.190;6.820;2022-12-05T20:20:56;42.33;;;31.73;;
10275;SDS011;5183;51.190;6.820;2022-12-05T20:23:23;38.37;;;29.80;;
10275;SDS011;5183;51.190;6.820;2022-12-05T20:25:50;41.67;;;31.73;;
10275;SDS011;5183;51.190;6.820;2022-12-05T20:28:17;46.73;;;35.07;;
10275;SDS011;5183;51.190;6.820;2022-12-05T20:30:45;38.50;;;30.03;;
10275;SDS011;5183;51.190;6.820;2022-12-05T20:33:13;40.30;;;30.40;;
10275;SDS011;5183;51.190;6.820;2022-12-05T20:35:40;44.33;;;30.87;;
10275;SDS011;5183;51.190;6.820;2022-12-05T20:38:07;43.63;;;30.77;;
10275;SDS011;5183;51.190;6.820;2022-12-05T20:40:34;40.57;;;29.83;;
10275;SDS011;5183;51.190;6.820;2022-12-05T20:43:00;38.97;;;29.33;;
10275;SDS011;5183;51.190;6.820;2022-12-05T20:45:27;40.63;;;30.37;;
10275;SDS011;5183;51.190;6.820;2022-12-05T20:47:56;44.37;;;30.20;;
10275;SDS011;5183;51.190;6.820;2022-12-05T20:50:23;39.10;;;29.07;;
10275;SDS011;5183;51.190;6.820;2022-12-05T20:52:49;43.07;;;29.13;;
10275;SDS011;5183;51.190;6.820;2022-12-05T20:55:16;40.10;;;29.33;;